x

Buoy A01 - Mass. Bay/stellwagen (44029) Wave Buoy

8:04pm - Fri 20th Jan 2017 All times are EST. -5 hours from GMT.

  • Sig Wave height 3.3ft
  • Peak Period 11s
  • Wind
    9mph, 11mph gusts
  • Sea Temp 44°f
  • 空気 Temp 42°f
  • Sea Pressure 1013.8mb
  • Buoy A01 - Mass. Bay/stellwagen
  • Buoy A01 - Mass. Bay/stellwagen

More Historic Weather Station data

Upgrade to MSW Pro to gain access to the past 30 days of data for over 8000 Wavebouys and Weather Stations around the globe.

Join Pro

Comparision Forecast

View Surf forecast
   
Fri 01/20 8:04pm 3.5ft 11s 9 11 mph 1013.8mb 44f 42f
7:04pm 3.5ft 10s 9 13 mph 1014.1mb 44f 42f
6:04pm 3.5ft 11s 7 9 mph 1013.7mb 45f 42f
5:04pm 3.5ft 8s 9 11 mph 1013.8mb 45f 41f
4:04pm 3.5ft 11s 7 9 mph 1014.2mb 44f 41f
3:04pm 3.5ft 11s 7 9 mph 1014.4mb 44f 40f
2:04pm 4ft 11s 7 9 mph 1014.6mb 44f 40f
1:04pm 4.5ft 11s 7 11 mph 1014.7mb 44f 40f
12:04pm 4ft 11s 4 7 mph 1015.7mb 44f 40f
11:04am 4ft 11s 7 9 mph 1016.3mb 44f 40f
10:04am 3.5ft 8s 7
mph
1016.8mb 44f 41f
9:04am 4.5ft 10s 7 9 mph 1016.5mb 44f 41f
8:04am 4ft 9s 9 11 mph 1015.9mb 44f 41f
7:04am 4.5ft 11s 7
mph
1015.7mb 44f 41f
6:04am 5ft 11s 9 11 mph 1015.5mb 44f 40f
5:04am 5ft 11s 7 9 mph 1015.6mb 44f 40f
4:04am 4.5ft 11s 7 9 mph 1015.2mb 44f 41f
3:04am 4ft 9s 9 11 mph 1015.2mb 44f 42f
2:04am 4.5ft 10s 13 16 mph 1014.9mb 44f 42f
1:04am 5.5ft 9s 13 16 mph 1014.5mb 44f 41f
12:04am 4.5ft 9s 16 18 mph 1015.4mb 44f 40f
Thu 01/19 11:04pm 4.5ft 9s 18 20 mph 1016.3mb 44f 40f
10:04pm 5ft 10s 16 18 mph 1016.3mb 44f 41f
9:04pm 5ft 9s 13 16 mph 1015.8mb 44f 42f
8:04pm 5ft 10s 11 16 mph 1015.1mb 44f 42f
7:04pm 5ft 9s 13 18 mph 1014.9mb 44f 42f
6:04pm 5ft 9s 11 16 mph 1014.1mb 44f 43f
5:04pm 4.5ft 9s 13 18 mph 1013.2mb 44f 43f
4:04pm  -   -  13 16 mph 1013.2mb 44f 44f
3:04pm 5ft 9s 16 18 mph 1013.2mb 44f 43f
2:04pm 6ft 8s 16 20 mph 1012.9mb 44f 43f
1:04pm  -   -  9 13 mph 1013.4mb 44f 42f
12:04pm 6ft 9s 9 11 mph 1014mb 44f 38f
11:04am 6ft 8s 9 13 mph 1014.9mb 44f 37f
10:04am 7ft 9s 7 11 mph 1015.5mb 44f 36f
9:04am 5.5ft 8s 2 7 mph 1015.4mb 44f 36f
8:04am 6ft 8s 4 9 mph 1015.6mb 44f 35f
7:04am 6ft 9s 4 7 mph 1015.1mb 44f 35f
6:04am 6ft 8s 7 9 mph 1015.4mb 44f 34f
5:04am 7ft 8s 9 13 mph 1014.9mb 44f 35f
4:04am 6.5ft 8s 11 13 mph 1014.9mb 44f 36f
3:04am 6ft 9s 13 16 mph 1015.1mb 44f 37f
2:04am 8ft 8s 13
mph
1014.9mb 44f 37f
1:04am 7.5ft 9s 16 20 mph 1015.4mb 45f 37f
12:04am 9ft 9s 16 20 mph 1015.3mb 45f 37f
Wed 01/18 11:04pm 9ft 9s 9 11 mph 1015.7mb 45f 41f
10:04pm 8ft 8s 11 13 mph 1015.5mb 45f 41f
9:04pm 9.5ft 9s 13 18 mph 1016.2mb 45f 41f
8:04pm 9ft 8s 13 16 mph 1016.6mb 45f 41f
7:04pm 9ft 8s 16 18 mph 1016.7mb 44f 40f
6:04pm 10ft 9s 18 20 mph 1015.9mb 44f 41f
5:04pm 10ft 9s 16 20 mph 1015.4mb 44f 42f
4:04pm 9ft 8s 20 22 mph 1014.8mb 44f 41f
3:04pm 8ft 8s 18 20 mph 1014.8mb 44f 41f
2:04pm 8.5ft 8s 18 22 mph 1014.2mb 45f 41f
1:04pm 8.5ft 7s 22 25 mph 1013.9mb 45f 40f
12:04pm 8ft 7s 22 27 mph 1013.9mb 45f 40f
11:04am 6.5ft 7s 22 25 mph 1014.6mb 45f 41f
10:04am 5.5ft 6s 25 27 mph 1015.3mb 45f 41f
9:04am 5ft 6s 22 27 mph 1015.6mb 45f 41f
8:04am 5ft 6s 18 22 mph 1015.4mb 45f 40f
7:04am 6ft 6s 20 22 mph 1015.4mb 44f 40f
6:04am 5ft 6s 20 25 mph 1015.6mb 44f 39f
5:04am 5ft 6s 22 25 mph 1015.4mb 44f 38f
4:04am 5ft 6s 22 27 mph 1015.6mb 44f 38f
3:04am 5ft 6s 22 27 mph 1016.4mb 44f 39f
2:04am 4.5ft 5s 22 27 mph 1017.1mb 44f 39f
1:04am 5ft 5s 20 25 mph 1018.2mb 44f 38f
12:04am 4ft 5s 20 25 mph 1018.8mb 44f 38f
Tue 01/17 11:04pm 4ft 5s 22 27 mph 1019.2mb 44f 39f
10:04pm 4.5ft 5s 22 27 mph 1020.3mb 44f 39f
9:04pm 4ft 5s 22 27 mph 1020.8mb 44f 40f
8:04pm 4.5ft 4s 18 22 mph 1021.4mb 44f 41f
7:04pm 3.5ft 4s 18 20 mph 1021.8mb 44f 42f
6:04pm 3ft 4s 18 22 mph 1021.6mb 44f 42f
5:04pm 2.5ft 5s 16 20 mph 1021.6mb 44f 42f
4:04pm 3ft 5s 13 16 mph 1021.8mb 44f 42f
3:04pm  -   -  11 18 mph 1021.7mb 44f 43f
2:04pm 3ft 4s 9 11 mph 1022mb 44f 42f
1:04pm 2ft 4s 13 16 mph 1022.2mb 44f 41f
12:04pm 2ft 3s 13 18 mph 1022.9mb 44f 42f
11:04am 1ft 2s 16 18 mph 1023.6mb 44f 43f
10:04am 1ft 3s 11 13 mph 1023.9mb 44f 42f
9:04am 1.3ft 2s 16
mph
1023.9mb 44f 39f
8:04am 1ft 3s 11 16 mph 1023.2mb 44f 38f
7:04am 1.3ft 3s 13 16 mph 1022.7mb 44f 38f
6:04am 1.3ft 3s 11 13 mph 1021.9mb 44f 38f
5:04am 1.6ft 3s 11 16 mph 1021.6mb 44f 38f
4:04am 3.5ft 4s 18 22 mph 1021.3mb 44f 38f
3:04am 2.5ft 4s 20 25 mph 1021mb 44f 38f